sensor_id;sensor_type;location;lat;lon;timestamp;temperature;humidity
18741;DHT22;9499;52.472;13.448;2023-09-12T00:00:57;22.40;1.00
18741;DHT22;9499;52.472;13.448;2023-09-12T00:03:23;22.40;99.90
18741;DHT22;9499;52.472;13.448;2023-09-12T00:05:51;22.40;99.90
18741;DHT22;9499;52.472;13.448;2023-09-12T00:08:17;22.40;99.90
18741;DHT22;9499;52.472;13.448;2023-09-12T00:10:44;22.40;45.00
18741;DHT22;9499;52.472;13.448;2023-09-12T00:13:11;22.40;1.00
18741;DHT22;9499;52.472;13.448;2023-09-12T00:15:38;22.40;1.00
18741;DHT22;9499;52.472;13.448;2023-09-12T00:18:04;22.30;1.00
18741;DHT22;9499;52.472;13.448;2023-09-12T00:20:31;22.30;1.00
18741;DHT22;9499;52.472;13.448;2023-09-12T00:22:58;22.20;1.00
18741;DHT22;9499;52.472;13.448;2023-09-12T00:25:24;22.20;1.00
18741;DHT22;9499;52.472;13.448;2023-09-12T00:27:51;22.20;1.00
18741;DHT22;9499;52.472;13.448;2023-09-12T00:30:19;22.20;1.00
18741;DHT22;9499;52.472;13.448;2023-09-12T00:32:46;22.20;1.00
18741;DHT22;9499;52.472;13.448;2023-09-12T00:35:12;22.20;1.00
18741;DHT22;9499;52.472;13.448;2023-09-12T00:37:38;22.20;1.00
18741;DHT22;9499;52.472;13.448;2023-09-12T00:40:06;22.20;1.00
18741;DHT22;9499;52.472;13.448;2023-09-12T00:42:33;22.20;1.00
18741;DHT22;9499;52.472;13.448;2023-09-12T00:44:59;22.10;1.00
18741;DHT22;9499;52.472;13.448;2023-09-12T00:47:27;22.10;1.00
18741;DHT22;9499;52.472;13.448;2023-09-12T00:49:55;22.10;1.00
18741;DHT22;9499;52.472;13.448;2023-09-12T00:52:23;22.10;3.00
18741;DHT22;9499;52.472;13.448;2023-09-12T00:54:51;22.00;1.00
18741;DHT22;9499;52.472;13.448;2023-09-12T00:57:17;22.00;1.00
18741;DHT22;9499;52.472;13.448;2023-09-12T00:59:44;22.10;1.00
18741;DHT22;9499;52.472;13.448;2023-09-12T01:02:11;22.00;99.90
18741;DHT22;9499;52.472;13.448;2023-09-12T01:04:39;22.00;99.90
18741;DHT22;9499;52.472;13.448;2023-09-12T01:07:06;22.00;99.90
18741;DHT22;9499;52.472;13.448;2023-09-12T01:09:33;22.00;99.90
18741;DHT22;9499;52.472;13.448;2023-09-12T01:12:00;21.90;99.90
18741;DHT22;9499;52.472;13.448;2023-09-12T01:14:28;21.90;99.90
18741;DHT22;9499;52.472;13.448;2023-09-12T01:16:54;21.90;99.90
18741;DHT22;9499;52.472;13.448;2023-09-12T01:19:21;21.80;1.00
18741;DHT22;9499;52.472;13.448;2023-09-12T01:22:10;21.70;1.00
18741;DHT22;9499;52.472;13.448;2023-09-12T01:25:07;21.70;1.00
18741;DHT22;9499;52.472;13.448;2023-09-12T01:27:38;21.70;1.00
18741;DHT22;9499;52.472;13.448;2023-09-12T01:30:07;21.60;1.00
18741;DHT22;9499;52.472;13.448;2023-09-12T01:32:35;21.60;1.00
18741;DHT22;9499;52.472;13.448;2023-09-12T01:35:02;21.60;1.00
18741;DHT22;9499;52.472;13.448;2023-09-12T01:37:29;21.60;1.00
18741;DHT22;9499;52.472;13.448;2023-09-12T01:39:56;21.60;1.00
18741;DHT22;9499;52.472;13.448;2023-09-12T01:42:22;21.60;1.00
18741;DHT22;9499;52.472;13.448;2023-09-12T01:44:54;21.60;1.00
18741;DHT22;9499;52.472;13.448;2023-09-12T01:47:22;21.60;1.00
18741;DHT22;9499;52.472;13.448;2023-09-12T01:49:51;21.60;1.00
18741;DHT22;9499;52.472;13.448;2023-09-12T01:52:19;21.50;1.00
18741;DHT22;9499;52.472;13.448;2023-09-12T01:54:47;21.50;1.00
18741;DHT22;9499;52.472;13.448;2023-09-12T01:57:14;21.50;1.00
18741;DHT22;9499;52.472;13.448;2023-09-12T01:59:41;21.50;99.90
18741;DHT22;9499;52.472;13.448;2023-09-12T02:02:09;21.50;1.00
18741;DHT22;9499;52.472;13.448;2023-09-12T02:04:36;21.40;1.00
18741;DHT22;9499;52.472;13.448;2023-09-12T02:07:02;21.40;1.00
18741;DHT22;9499;52.472;13.448;2023-09-12T02:09:29;21.40;1.00
18741;DHT22;9499;52.472;13.448;2023-09-12T02:11:55;21.40;1.00
18741;DHT22;9499;52.472;13.448;2023-09-12T02:14:22;21.40;1.00
18741;DHT22;9499;52.472;13.448;2023-09-12T02:16:48;21.30;99.90
18741;DHT22;9499;52.472;13.448;2023-09-12T02:19:16;21.30;99.90
18741;DHT22;9499;52.472;13.448;2023-09-12T02:21:42;21.20;99.90
18741;DHT22;9499;52.472;13.448;2023-09-12T02:24:09;21.20;99.90
18741;DHT22;9499;52.472;13.448;2023-09-12T02:26:35;21.20;99.90
18741;DHT22;9499;52.472;13.448;2023-09-12T02:29:02;21.20;99.90
18741;DHT22;9499;52.472;13.448;2023-09-12T02:31:31;21.10;99.90
18741;DHT22;9499;52.472;13.448;2023-09-12T02:33:57;21.10;99.90
18741;DHT22;9499;52.472;13.448;2023-09-12T02:36:25;21.10;99.90
18741;DHT22;9499;52.472;13.448;2023-09-12T02:38:53;21.10;99.90
18741;DHT22;9499;52.472;13.448;2023-09-12T02:41:19;21.10;99.90
18741;DHT22;9499;52.472;13.448;2023-09-12T02:43:46;21.00;1.00
18741;DHT22;9499;52.472;13.448;2023-09-12T02:46:12;21.00;99.90
18741;DHT22;9499;52.472;13.448;2023-09-12T02:48:39;21.00;99.90
18741;DHT22;9499;52.472;13.448;2023-09-12T02:51:05;21.00;99.90
18741;DHT22;9499;52.472;13.448;2023-09-12T02:53:33;20.90;1.00
18741;DHT22;9499;52.472;13.448;2023-09-12T02:55:59;20.90;99.90
18741;DHT22;9499;52.472;13.448;2023-09-12T02:58:26;20.90;99.90
18741;DHT22;9499;52.472;13.448;2023-09-12T03:00:52;20.80;99.90
18741;DHT22;9499;52.472;13.448;2023-09-12T03:03:20;20.80;99.90
18741;DHT22;9499;52.472;13.448;2023-09-12T03:05:46;20.80;99.90
18741;DHT22;9499;52.472;13.448;2023-09-12T03:08:13;20.80;99.90
18741;DHT22;9499;52.472;13.448;2023-09-12T03:10:40;20.70;99.90
18741;DHT22;9499;52.472;13.448;2023-09-12T03:13:07;20.70;1.00
18741;DHT22;9499;52.472;13.448;2023-09-12T03:15:36;20.70;1.00
18741;DHT22;9499;52.472;13.448;2023-09-12T03:18:04;20.70;1.00
18741;DHT22;9499;52.472;13.448;2023-09-12T03:20:31;20.60;1.00
18741;DHT22;9499;52.472;13.448;2023-09-12T03:22:57;20.60;1.00
18741;DHT22;9499;52.472;13.448;2023-09-12T03:25:24;20.60;1.00
18741;DHT22;9499;52.472;13.448;2023-09-12T03:27:51;20.50;1.00
18741;DHT22;9499;52.472;13.448;2023-09-12T03:30:20;20.50;1.00
18741;DHT22;9499;52.472;13.448;2023-09-12T03:32:46;20.50;1.00
18741;DHT22;9499;52.472;13.448;2023-09-12T03:35:13;20.50;1.00
18741;DHT22;9499;52.472;13.448;2023-09-12T03:37:39;20.50;1.00
18741;DHT22;9499;52.472;13.448;2023-09-12T03:40:09;20.50;1.00
18741;DHT22;9499;52.472;13.448;2023-09-12T03:42:36;20.40;1.00
18741;DHT22;9499;52.472;13.448;2023-09-12T03:45:05;20.40;1.00
18741;DHT22;9499;52.472;13.448;2023-09-12T03:47:31;20.40;19.30
18741;DHT22;9499;52.472;13.448;2023-09-12T03:49:58;20.40;1.00
18741;DHT22;9499;52.472;13.448;2023-09-12T03:52:24;20.40;1.00
18741;DHT22;9499;52.472;13.448;2023-09-12T03:54:51;20.40;1.00
18741;DHT22;9499;52.472;13.448;2023-09-12T03:57:17;20.40;1.00
18741;DHT22;9499;52.472;13.448;2023-09-12T03:59:44;20.40;1.00
18741;DHT22;9499;52.472;13.448;2023-09-12T04:02:13;20.40;42.20
18741;DHT22;9499;52.472;13.448;2023-09-12T04:04:39;20.40;99.90
18741;DHT22;9499;52.472;13.448;2023-09-12T04:07:06;20.30;99.90
18741;DHT22;9499;52.472;13.448;2023-09-12T04:09:32;20.40;99.90
18741;DHT22;9499;52.472;13.448;2023-09-12T04:11:59;20.40;99.90
18741;DHT22;9499;52.472;13.448;2023-09-12T04:14:26;20.30;99.90
18741;DHT22;9499;52.472;13.448;2023-09-12T04:16:53;20.30;99.90
18741;DHT22;9499;52.472;13.448;2023-09-12T04:19:21;20.30;99.90
18741;DHT22;9499;52.472;13.448;2023-09-12T04:21:47;20.30;99.90
18741;DHT22;9499;52.472;13.448;2023-09-12T04:24:14;20.30;1.00
18741;DHT22;9499;52.472;13.448;2023-09-12T04:26:42;20.30;1.00
18741;DHT22;9499;52.472;13.448;2023-09-12T04:29:09;20.20;1.00
18741;DHT22;9499;52.472;13.448;2023-09-12T04:31:35;20.20;1.00
18741;DHT22;9499;52.472;13.448;2023-09-12T04:34:02;20.20;1.00
18741;DHT22;9499;52.472;13.448;2023-09-12T04:36:30;20.20;1.00
18741;DHT22;9499;52.472;13.448;2023-09-12T04:38:56;20.20;1.00
18741;DHT22;9499;52.472;13.448;2023-09-12T04:41:23;20.20;1.00
18741;DHT22;9499;52.472;13.448;2023-09-12T04:43:49;20.10;1.00
18741;DHT22;9499;52.472;13.448;2023-09-12T04:46:16;20.10;1.00
18741;DHT22;9499;52.472;13.448;2023-09-12T04:48:42;20.10;1.00
18741;DHT22;9499;52.472;13.448;2023-09-12T04:51:09;20.10;1.00
18741;DHT22;9499;52.472;13.448;2023-09-12T04:53:37;20.10;1.00
18741;DHT22;9499;52.472;13.448;2023-09-12T04:56:05;20.20;1.00
18741;DHT22;9499;52.472;13.448;2023-09-12T04:58:35;20.20;1.00
18741;DHT22;9499;52.472;13.448;2023-09-12T05:01:01;20.20;1.00
18741;DHT22;9499;52.472;13.448;2023-09-12T05:03:28;20.20;1.00
18741;DHT22;9499;52.472;13.448;2023-09-12T05:05:54;20.20;1.00
18741;DHT22;9499;52.472;13.448;2023-09-12T05:08:21;20.20;1.00
18741;DHT22;9499;52.472;13.448;2023-09-12T05:10:49;20.20;1.00
18741;DHT22;9499;52.472;13.448;2023-09-12T05:13:16;20.20;99.90
18741;DHT22;9499;52.472;13.448;2023-09-12T05:15:43;20.20;99.90
18741;DHT22;9499;52.472;13.448;2023-09-12T05:18:09;20.20;99.90
18741;DHT22;9499;52.472;13.448;2023-09-12T05:20:36;20.20;99.90
18741;DHT22;9499;52.472;13.448;2023-09-12T05:23:02;20.20;99.90
18741;DHT22;9499;52.472;13.448;2023-09-12T05:25:29;20.30;1.00
18741;DHT22;9499;52.472;13.448;2023-09-12T05:27:57;20.20;99.90
18741;DHT22;9499;52.472;13.448;2023-09-12T05:30:23;20.20;99.90
18741;DHT22;9499;52.472;13.448;2023-09-12T05:32:50;20.30;69.40
18741;DHT22;9499;52.472;13.448;2023-09-12T05:35:16;20.30;1.30
18741;DHT22;9499;52.472;13.448;2023-09-12T05:37:43;20.30;1.00
18741;DHT22;9499;52.472;13.448;2023-09-12T05:40:10;20.30;99.90
18741;DHT22;9499;52.472;13.448;2023-09-12T05:42:36;20.40;99.90
18741;DHT22;9499;52.472;13.448;2023-09-12T05:45:05;20.40;99.90
18741;DHT22;9499;52.472;13.448;2023-09-12T05:47:32;20.50;1.00
18741;DHT22;9499;52.472;13.448;2023-09-12T05:49:58;20.50;1.00
18741;DHT22;9499;52.472;13.448;2023-09-12T05:52:26;20.50;1.00
18741;DHT22;9499;52.472;13.448;2023-09-12T05:54:52;20.50;40.30
18741;DHT22;9499;52.472;13.448;2023-09-12T05:57:19;20.50;1.00
18741;DHT22;9499;52.472;13.448;2023-09-12T05:59:46;20.60;1.00
18741;DHT22;9499;52.472;13.448;2023-09-12T06:02:14;20.60;1.00
18741;DHT22;9499;52.472;13.448;2023-09-12T06:04:40;20.70;99.90
18741;DHT22;9499;52.472;13.448;2023-09-12T06:07:07;20.70;1.00
18741;DHT22;9499;52.472;13.448;2023-09-12T06:09:34;20.80;1.00
18741;DHT22;9499;52.472;13.448;2023-09-12T06:12:01;20.80;1.00
18741;DHT22;9499;52.472;13.448;2023-09-12T06:14:27;20.90;1.00
18741;DHT22;9499;52.472;13.448;2023-09-12T06:16:54;20.90;1.00
18741;DHT22;9499;52.472;13.448;2023-09-12T06:19:22;20.90;99.90
18741;DHT22;9499;52.472;13.448;2023-09-12T06:21:48;21.00;99.90
18741;DHT22;9499;52.472;13.448;2023-09-12T06:24:16;21.00;99.90
18741;DHT22;9499;52.472;13.448;2023-09-12T06:26:43;21.10;99.90
18741;DHT22;9499;52.472;13.448;2023-09-12T06:29:10;21.20;99.90
18741;DHT22;9499;52.472;13.448;2023-09-12T06:31:36;21.20;1.00
18741;DHT22;9499;52.472;13.448;2023-09-12T06:34:03;21.20;99.90
18741;DHT22;9499;52.472;13.448;2023-09-12T06:36:31;21.30;99.90
18741;DHT22;9499;52.472;13.448;2023-09-12T06:38:58;21.40;99.90
18741;DHT22;9499;52.472;13.448;2023-09-12T06:41:25;21.50;26.10
18741;DHT22;9499;52.472;13.448;2023-09-12T06:43:52;21.60;1.00
18741;DHT22;9499;52.472;13.448;2023-09-12T06:46:19;21.70;1.00
18741;DHT22;9499;52.472;13.448;2023-09-12T06:48:45;21.80;1.00
18741;DHT22;9499;52.472;13.448;2023-09-12T06:51:14;21.90;1.00
18741;DHT22;9499;52.472;13.448;2023-09-12T06:53:42;21.90;1.00
18741;DHT22;9499;52.472;13.448;2023-09-12T06:56:09;22.00;1.00
18741;DHT22;9499;52.472;13.448;2023-09-12T06:58:35;22.10;99.90
18741;DHT22;9499;52.472;13.448;2023-09-12T07:01:02;22.10;99.90
18741;DHT22;9499;52.472;13.448;2023-09-12T07:03:29;22.20;99.90
18741;DHT22;9499;52.472;13.448;2023-09-12T07:05:56;22.30;99.90
18741;DHT22;9499;52.472;13.448;2023-09-12T07:08:22;22.40;99.90
18741;DHT22;9499;52.472;13.448;2023-09-12T07:10:50;22.40;99.90
18741;DHT22;9499;52.472;13.448;2023-09-12T07:13:20;22.50;99.90
18741;DHT22;9499;52.472;13.448;2023-09-12T07:15:47;22.50;30.30
18741;DHT22;9499;52.472;13.448;2023-09-12T07:18:13;22.60;23.90
18741;DHT22;9499;52.472;13.448;2023-09-12T07:20:41;22.70;1.00
18741;DHT22;9499;52.472;13.448;2023-09-12T07:23:07;22.70;1.00
18741;DHT22;9499;52.472;13.448;2023-09-12T07:25:38;22.80;1.00
18741;DHT22;9499;52.472;13.448;2023-09-12T07:28:06;22.90;1.00
18741;DHT22;9499;52.472;13.448;2023-09-12T07:30:33;22.90;1.00
18741;DHT22;9499;52.472;13.448;2023-09-12T07:32:59;23.00;1.00
18741;DHT22;9499;52.472;13.448;2023-09-12T07:35:25;23.10;1.00
18741;DHT22;9499;52.472;13.448;2023-09-12T07:37:52;23.20;1.00
18741;DHT22;9499;52.472;13.448;2023-09-12T07:40:18;23.30;1.00
18741;DHT22;9499;52.472;13.448;2023-09-12T07:42:45;23.30;1.00
18741;DHT22;9499;52.472;13.448;2023-09-12T07:45:13;23.40;1.00
18741;DHT22;9499;52.472;13.448;2023-09-12T07:47:39;23.50;1.00
18741;DHT22;9499;52.472;13.448;2023-09-12T07:50:06;23.60;1.00
18741;DHT22;9499;52.472;13.448;2023-09-12T07:52:33;23.70;1.00
18741;DHT22;9499;52.472;13.448;2023-09-12T07:55:00;23.80;1.00
18741;DHT22;9499;52.472;13.448;2023-09-12T07:57:27;23.90;1.00
18741;DHT22;9499;52.472;13.448;2023-09-12T07:59:54;24.00;99.90
18741;DHT22;9499;52.472;13.448;2023-09-12T08:02:21;24.10;1.00
18741;DHT22;9499;52.472;13.448;2023-09-12T08:04:48;24.10;99.90
18741;DHT22;9499;52.472;13.448;2023-09-12T08:07:16;24.20;99.90
18741;DHT22;9499;52.472;13.448;2023-09-12T08:09:49;24.30;99.90
18741;DHT22;9499;52.472;13.448;2023-09-12T08:12:16;24.30;99.90
18741;DHT22;9499;52.472;13.448;2023-09-12T08:14:42;24.40;99.90
18741;DHT22;9499;52.472;13.448;2023-09-12T08:17:10;24.50;99.90
18741;DHT22;9499;52.472;13.448;2023-09-12T08:19:38;24.60;99.90
18741;DHT22;9499;52.472;13.448;2023-09-12T08:22:05;24.70;99.90
18741;DHT22;9499;52.472;13.448;2023-09-12T08:24:32;24.80;99.90
18741;DHT22;9499;52.472;13.448;2023-09-12T08:26:59;24.90;99.90
18741;DHT22;9499;52.472;13.448;2023-09-12T08:29:31;25.00;99.90
18741;DHT22;9499;52.472;13.448;2023-09-12T08:31:58;25.00;99.00
18741;DHT22;9499;52.472;13.448;2023-09-12T08:34:25;25.10;99.90
18741;DHT22;9499;52.472;13.448;2023-09-12T08:36:53;25.10;72.70
18741;DHT22;9499;52.472;13.448;2023-09-12T08:39:27;25.20;1.00
18741;DHT22;9499;52.472;13.448;2023-09-12T08:41:54;25.20;1.00
18741;DHT22;9499;52.472;13.448;2023-09-12T08:44:21;25.30;1.00
18741;DHT22;9499;52.472;13.448;2023-09-12T08:46:48;25.40;1.00
18741;DHT22;9499;52.472;13.448;2023-09-12T08:49:15;25.50;1.00
18741;DHT22;9499;52.472;13.448;2023-09-12T08:51:42;25.60;1.00
18741;DHT22;9499;52.472;13.448;2023-09-12T08:54:11;25.70;1.00
18741;DHT22;9499;52.472;13.448;2023-09-12T08:56:40;25.90;1.00
18741;DHT22;9499;52.472;13.448;2023-09-12T08:59:07;25.90;1.00
18741;DHT22;9499;52.472;13.448;2023-09-12T09:01:35;26.00;1.00
18741;DHT22;9499;52.472;13.448;2023-09-12T09:04:02;26.10;1.00
18741;DHT22;9499;52.472;13.448;2023-09-12T09:06:32;26.20;1.00
18741;DHT22;9499;52.472;13.448;2023-09-12T09:09:04;26.20;1.00
18741;DHT22;9499;52.472;13.448;2023-09-12T09:11:32;26.30;1.00
18741;DHT22;9499;52.472;13.448;2023-09-12T09:13:58;26.40;1.00
18741;DHT22;9499;52.472;13.448;2023-09-12T09:16:25;26.50;99.90
18741;DHT22;9499;52.472;13.448;2023-09-12T09:18:52;26.50;99.90
18741;DHT22;9499;52.472;13.448;2023-09-12T09:21:20;26.60;99.90
18741;DHT22;9499;52.472;13.448;2023-09-12T09:23:49;26.70;99.90
18741;DHT22;9499;52.472;13.448;2023-09-12T09:26:16;26.80;99.90
18741;DHT22;9499;52.472;13.448;2023-09-12T09:28:44;27.00;99.90
18741;DHT22;9499;52.472;13.448;2023-09-12T09:31:12;27.10;99.90
18741;DHT22;9499;52.472;13.448;2023-09-12T09:33:39;27.10;99.90
18741;DHT22;9499;52.472;13.448;2023-09-12T09:36:07;27.20;99.90
18741;DHT22;9499;52.472;13.448;2023-09-12T09:38:34;27.30;99.90
18741;DHT22;9499;52.472;13.448;2023-09-12T09:41:04;27.30;99.90
18741;DHT22;9499;52.472;13.448;2023-09-12T09:43:31;27.40;99.90
18741;DHT22;9499;52.472;13.448;2023-09-12T09:45:59;27.40;99.90
18741;DHT22;9499;52.472;13.448;2023-09-12T09:48:26;27.40;99.90
18741;DHT22;9499;52.472;13.448;2023-09-12T09:50:53;27.30;99.90
18741;DHT22;9499;52.472;13.448;2023-09-12T09:53:26;27.30;99.90
18741;DHT22;9499;52.472;13.448;2023-09-12T09:56:07;27.60;1.00
18741;DHT22;9499;52.472;13.448;2023-09-12T09:58:33;27.80;99.90
18741;DHT22;9499;52.472;13.448;2023-09-12T10:01:01;28.00;99.90
18741;DHT22;9499;52.472;13.448;2023-09-12T10:03:30;28.20;99.90
18741;DHT22;9499;52.472;13.448;2023-09-12T10:05:59;28.50;99.90
18741;DHT22;9499;52.472;13.448;2023-09-12T10:08:30;28.60;99.90
18741;DHT22;9499;52.472;13.448;2023-09-12T10:10:57;28.70;99.90
18741;DHT22;9499;52.472;13.448;2023-09-12T10:13:26;28.90;99.90
18741;DHT22;9499;52.472;13.448;2023-09-12T10:15:58;29.00;99.90
18741;DHT22;9499;52.472;13.448;2023-09-12T10:18:29;28.80;99.90
18741;DHT22;9499;52.472;13.448;2023-09-12T10:21:04;28.50;99.90
18741;DHT22;9499;52.472;13.448;2023-09-12T10:23:35;28.50;99.90
18741;DHT22;9499;52.472;13.448;2023-09-12T10:26:08;28.40;99.90
18741;DHT22;9499;52.472;13.448;2023-09-12T10:28:35;28.50;99.90
18741;DHT22;9499;52.472;13.448;2023-09-12T10:31:03;28.70;99.90
18741;DHT22;9499;52.472;13.448;2023-09-12T10:33:32;28.80;99.90
18741;DHT22;9499;52.472;13.448;2023-09-12T10:35:59;28.90;99.90
18741;DHT22;9499;52.472;13.448;2023-09-12T10:38:26;29.10;99.90
18741;DHT22;9499;52.472;13.448;2023-09-12T10:40:54;29.40;99.90
18741;DHT22;9499;52.472;13.448;2023-09-12T10:43:21;29.60;99.90
18741;DHT22;9499;52.472;13.448;2023-09-12T10:45:49;29.90;99.90
18741;DHT22;9499;52.472;13.448;2023-09-12T10:48:18;30.00;99.90
18741;DHT22;9499;52.472;13.448;2023-09-12T10:50:46;30.30;99.90
18741;DHT22;9499;52.472;13.448;2023-09-12T10:53:15;30.50;99.90
18741;DHT22;9499;52.472;13.448;2023-09-12T10:55:42;30.50;99.90
18741;DHT22;9499;52.472;13.448;2023-09-12T10:58:09;30.40;99.90
18741;DHT22;9499;52.472;13.448;2023-09-12T11:00:36;30.40;99.90
18741;DHT22;9499;52.472;13.448;2023-09-12T11:03:35;30.60;99.90
18741;DHT22;9499;52.472;13.448;2023-09-12T11:06:03;30.70;51.30
18741;DHT22;9499;52.472;13.448;2023-09-12T11:08:35;30.70;22.30
18741;DHT22;9499;52.472;13.448;2023-09-12T11:11:17;31.00;1.00
18741;DHT22;9499;52.472;13.448;2023-09-12T11:13:45;31.10;1.00
18741;DHT22;9499;52.472;13.448;2023-09-12T11:16:13;31.30;1.00
18741;DHT22;9499;52.472;13.448;2023-09-12T11:19:13;31.70;1.00
18741;DHT22;9499;52.472;13.448;2023-09-12T11:21:47;32.00;1.00
18741;DHT22;9499;52.472;13.448;2023-09-12T11:24:15;31.90;1.00
18741;DHT22;9499;52.472;13.448;2023-09-12T11:26:55;31.90;1.00
18741;DHT22;9499;52.472;13.448;2023-09-12T11:29:26;32.10;1.00
18741;DHT22;9499;52.472;13.448;2023-09-12T11:31:55;32.10;1.00
18741;DHT22;9499;52.472;13.448;2023-09-12T11:34:25;32.10;1.00
18741;DHT22;9499;52.472;13.448;2023-09-12T11:36:59;32.30;1.00
18741;DHT22;9499;52.472;13.448;2023-09-12T11:39:30;32.30;1.00
18741;DHT22;9499;52.472;13.448;2023-09-12T11:42:00;32.30;1.00
18741;DHT22;9499;52.472;13.448;2023-09-12T11:44:27;32.30;1.00
18741;DHT22;9499;52.472;13.448;2023-09-12T11:46:54;32.20;1.00
18741;DHT22;9499;52.472;13.448;2023-09-12T11:49:21;32.00;1.00
18741;DHT22;9499;52.472;13.448;2023-09-12T11:51:49;32.10;1.00
18741;DHT22;9499;52.472;13.448;2023-09-12T11:54:18;32.40;1.00
18741;DHT22;9499;52.472;13.448;2023-09-12T11:56:46;32.10;1.00
18741;DHT22;9499;52.472;13.448;2023-09-12T11:59:13;32.10;1.00
18741;DHT22;9499;52.472;13.448;2023-09-12T12:01:40;32.20;1.00
18741;DHT22;9499;52.472;13.448;2023-09-12T12:04:07;32.10;1.00
18741;DHT22;9499;52.472;13.448;2023-09-12T12:06:33;31.90;1.00
18741;DHT22;9499;52.472;13.448;2023-09-12T12:09:01;32.00;1.00
18741;DHT22;9499;52.472;13.448;2023-09-12T12:11:31;32.00;1.00
18741;DHT22;9499;52.472;13.448;2023-09-12T12:13:57;32.10;1.00
18741;DHT22;9499;52.472;13.448;2023-09-12T12:16:25;32.30;1.00
18741;DHT22;9499;52.472;13.448;2023-09-12T12:18:52;32.30;1.00
18741;DHT22;9499;52.472;13.448;2023-09-12T12:21:21;32.00;1.00
18741;DHT22;9499;52.472;13.448;2023-09-12T12:23:57;31.90;1.00
18741;DHT22;9499;52.472;13.448;2023-09-12T12:26:24;31.90;1.00
18741;DHT22;9499;52.472;13.448;2023-09-12T12:28:52;31.80;1.00
18741;DHT22;9499;52.472;13.448;2023-09-12T12:31:20;31.50;1.00
18741;DHT22;9499;52.472;13.448;2023-09-12T12:33:49;31.30;1.00
18741;DHT22;9499;52.472;13.448;2023-09-12T12:36:16;31.20;1.00
18741;DHT22;9499;52.472;13.448;2023-09-12T12:38:46;31.40;1.00
18741;DHT22;9499;52.472;13.448;2023-09-12T12:41:13;31.60;1.00
18741;DHT22;9499;52.472;13.448;2023-09-12T12:43:39;31.80;1.00
18741;DHT22;9499;52.472;13.448;2023-09-12T12:46:10;32.10;1.00
18741;DHT22;9499;52.472;13.448;2023-09-12T12:48:38;32.30;1.00
18741;DHT22;9499;52.472;13.448;2023-09-12T12:51:13;32.50;1.00
18741;DHT22;9499;52.472;13.448;2023-09-12T12:53:43;32.80;1.00
18741;DHT22;9499;52.472;13.448;2023-09-12T12:56:12;32.80;1.00
18741;DHT22;9499;52.472;13.448;2023-09-12T12:58:50;32.60;1.00
18741;DHT22;9499;52.472;13.448;2023-09-12T13:01:18;32.60;1.00
18741;DHT22;9499;52.472;13.448;2023-09-12T13:03:46;32.80;1.00
18741;DHT22;9499;52.472;13.448;2023-09-12T13:06:15;32.90;1.00
18741;DHT22;9499;52.472;13.448;2023-09-12T13:08:43;33.00;1.00
18741;DHT22;9499;52.472;13.448;2023-09-12T13:11:11;33.30;1.00
18741;DHT22;9499;52.472;13.448;2023-09-12T13:13:39;33.30;1.00
18741;DHT22;9499;52.472;13.448;2023-09-12T13:16:06;33.20;1.00
18741;DHT22;9499;52.472;13.448;2023-09-12T13:18:36;32.90;1.00
18741;DHT22;9499;52.472;13.448;2023-09-12T13:21:03;33.20;1.00
18741;DHT22;9499;52.472;13.448;2023-09-12T13:23:30;33.60;1.00
18741;DHT22;9499;52.472;13.448;2023-09-12T13:25:57;33.90;1.00
18741;DHT22;9499;52.472;13.448;2023-09-12T13:28:23;34.20;1.00
18741;DHT22;9499;52.472;13.448;2023-09-12T13:30:51;34.40;1.00
18741;DHT22;9499;52.472;13.448;2023-09-12T13:33:17;34.60;1.00
18741;DHT22;9499;52.472;13.448;2023-09-12T13:35:46;34.80;1.00
18741;DHT22;9499;52.472;13.448;2023-09-12T13:38:12;34.50;1.00
18741;DHT22;9499;52.472;13.448;2023-09-12T13:40:39;34.20;1.00
18741;DHT22;9499;52.472;13.448;2023-09-12T13:43:06;33.90;1.00
18741;DHT22;9499;52.472;13.448;2023-09-12T13:45:33;34.00;1.00
18741;DHT22;9499;52.472;13.448;2023-09-12T13:48:00;33.70;1.00
18741;DHT22;9499;52.472;13.448;2023-09-12T13:50:27;33.50;1.00
18741;DHT22;9499;52.472;13.448;2023-09-12T13:52:55;33.50;1.00
18741;DHT22;9499;52.472;13.448;2023-09-12T13:55:22;33.50;1.00
18741;DHT22;9499;52.472;13.448;2023-09-12T13:57:49;33.50;1.00
18741;DHT22;9499;52.472;13.448;2023-09-12T14:00:15;33.70;1.00
18741;DHT22;9499;52.472;13.448;2023-09-12T14:02:42;33.80;1.00
18741;DHT22;9499;52.472;13.448;2023-09-12T14:05:09;34.00;1.00
18741;DHT22;9499;52.472;13.448;2023-09-12T14:07:36;33.90;1.00
18741;DHT22;9499;52.472;13.448;2023-09-12T14:10:05;33.80;1.00
18741;DHT22;9499;52.472;13.448;2023-09-12T14:12:32;33.90;1.00
18741;DHT22;9499;52.472;13.448;2023-09-12T14:14:59;33.90;1.00
18741;DHT22;9499;52.472;13.448;2023-09-12T14:17:25;33.90;1.00
18741;DHT22;9499;52.472;13.448;2023-09-12T14:19:52;33.80;1.00
18741;DHT22;9499;52.472;13.448;2023-09-12T14:22:18;33.70;1.00
18741;DHT22;9499;52.472;13.448;2023-09-12T14:24:46;33.70;1.00
18741;DHT22;9499;52.472;13.448;2023-09-12T14:27:14;33.90;1.00
18741;DHT22;9499;52.472;13.448;2023-09-12T14:29:41;34.00;1.00
18741;DHT22;9499;52.472;13.448;2023-09-12T14:32:12;33.70;1.00
18741;DHT22;9499;52.472;13.448;2023-09-12T14:34:39;33.30;1.00
18741;DHT22;9499;52.472;13.448;2023-09-12T14:37:06;33.10;1.00
18741;DHT22;9499;52.472;13.448;2023-09-12T14:39:33;32.90;1.00
18741;DHT22;9499;52.472;13.448;2023-09-12T14:41:59;33.00;1.00
18741;DHT22;9499;52.472;13.448;2023-09-12T14:44:28;33.00;1.00
18741;DHT22;9499;52.472;13.448;2023-09-12T14:46:59;32.80;1.00
18741;DHT22;9499;52.472;13.448;2023-09-12T14:49:25;32.10;1.00
18741;DHT22;9499;52.472;13.448;2023-09-12T14:51:52;31.70;1.00
18741;DHT22;9499;52.472;13.448;2023-09-12T14:54:18;31.40;1.00
18741;DHT22;9499;52.472;13.448;2023-09-12T14:56:45;31.20;1.00
18741;DHT22;9499;52.472;13.448;2023-09-12T14:59:11;31.20;1.00
18741;DHT22;9499;52.472;13.448;2023-09-12T15:01:40;31.30;1.00
18741;DHT22;9499;52.472;13.448;2023-09-12T15:04:06;30.70;1.00
18741;DHT22;9499;52.472;13.448;2023-09-12T15:06:33;29.90;1.00
18741;DHT22;9499;52.472;13.448;2023-09-12T15:08:59;29.40;1.00
18741;DHT22;9499;52.472;13.448;2023-09-12T15:11:26;29.30;1.00
18741;DHT22;9499;52.472;13.448;2023-09-12T15:13:52;29.00;1.00
18741;DHT22;9499;52.472;13.448;2023-09-12T15:16:19;28.90;1.00
18741;DHT22;9499;52.472;13.448;2023-09-12T15:18:46;28.80;1.00
18741;DHT22;9499;52.472;13.448;2023-09-12T15:21:13;28.70;1.00
18741;DHT22;9499;52.472;13.448;2023-09-12T15:23:39;28.60;1.00
18741;DHT22;9499;52.472;13.448;2023-09-12T15:26:06;28.50;1.00
18741;DHT22;9499;52.472;13.448;2023-09-12T15:28:32;28.70;1.00
18741;DHT22;9499;52.472;13.448;2023-09-12T15:30:59;28.70;1.00
18741;DHT22;9499;52.472;13.448;2023-09-12T15:33:29;28.70;1.00
18741;DHT22;9499;52.472;13.448;2023-09-12T15:35:56;28.80;4.40
18741;DHT22;9499;52.472;13.448;2023-09-12T15:38:23;28.80;4.50
18741;DHT22;9499;52.472;13.448;2023-09-12T15:40:49;28.70;1.00
18741;DHT22;9499;52.472;13.448;2023-09-12T15:43:16;28.70;2.40